createdAt,value
2023-01-13T00:00:01.226Z,8.49
2023-01-13T00:15:43.810Z,8.53
2023-01-13T00:31:26.432Z,8.59
2023-01-13T00:47:08.941Z,8.6
2023-01-13T01:02:51.578Z,8.62
2023-01-13T01:18:34.127Z,8.66
2023-01-13T01:34:17.154Z,8.74
2023-01-13T01:49:59.707Z,8.76
2023-01-13T02:05:42.017Z,8.84
2023-01-13T02:21:24.292Z,8.95
2023-01-13T02:37:06.777Z,9.02
2023-01-13T02:52:49.647Z,8.95
2023-01-13T03:08:32.633Z,8.97
2023-01-13T03:24:15.763Z,8.88
2023-01-13T03:39:58.784Z,8.87
2023-01-13T03:55:41.572Z,8.82
2023-01-13T04:11:24.423Z,8.72
2023-01-13T04:27:07.115Z,8.72
2023-01-13T04:42:49.863Z,8.7
2023-01-13T04:58:32.586Z,8.64
2023-01-13T05:14:15.579Z,8.8
2023-01-13T05:29:58.141Z,8.95
2023-01-13T05:45:41.087Z,8.91
2023-01-13T06:01:23.712Z,8.95
2023-01-13T06:17:06.389Z,8.97
2023-01-13T06:32:48.662Z,8.89
2023-01-13T06:48:31.362Z,9.03
2023-01-13T07:04:14.255Z,9.08
2023-01-13T07:19:56.653Z,9.09
2023-01-13T07:35:39.572Z,9.1
2023-01-13T07:51:21.906Z,9.04
2023-01-13T08:07:04.229Z,8.87
2023-01-13T08:22:46.653Z,8.74
2023-01-13T08:38:29.761Z,8.82
2023-01-13T08:54:12.156Z,9.1
2023-01-13T09:09:54.424Z,9.18
2023-01-13T09:25:36.983Z,8.99
2023-01-13T09:41:20.115Z,8.93
2023-01-13T09:57:02.616Z,8.99
2023-01-13T10:12:45.548Z,8.8
2023-01-13T10:28:28.607Z,8.67
2023-01-13T10:44:11.546Z,8.81
2023-01-13T10:59:54.551Z,9.03
2023-01-13T11:00:41.898Z,9.2
2023-01-13T11:16:24.303Z,9.43
2023-01-13T11:47:49.454Z,9.43
2023-01-13T12:03:31.973Z,9.38
2023-01-13T12:19:14.284Z,9.47
2023-01-13T12:34:57.297Z,9.52
2023-01-13T12:50:39.584Z,9.58
2023-01-13T13:06:22.588Z,9.87
2023-01-13T13:22:05.381Z,10.09
2023-01-13T13:37:48.335Z,9.87
2023-01-13T13:53:31.366Z,9.66
2023-01-13T14:09:14.402Z,9.56
2023-01-13T14:24:57.173Z,9.39
2023-01-13T14:40:39.716Z,9.39
2023-01-13T14:56:21.939Z,9.25
2023-01-13T15:12:04.971Z,8.88
2023-01-13T15:27:48.095Z,8.68
2023-01-13T15:43:30.586Z,8.35
2023-01-13T15:59:13.583Z,8
2023-01-13T16:14:56.837Z,7.93
2023-01-13T16:30:39.184Z,8.02
2023-01-13T16:46:22.407Z,7.98
2023-01-13T17:02:04.861Z,7.63
2023-01-13T17:17:47.472Z,7.38
2023-01-13T17:33:30.015Z,7.28
2023-01-13T17:49:12.305Z,7.23
2023-01-13T18:04:55.064Z,7.22
2023-01-13T18:20:38.292Z,7.24
2023-01-13T18:36:20.694Z,7.24
2023-01-13T18:52:03.236Z,7.21
2023-01-13T19:07:46.249Z,7.21
2023-01-13T19:23:28.626Z,7.37
2023-01-13T19:39:11.121Z,7.5
2023-01-13T19:54:53.604Z,7.56
2023-01-13T20:10:36.000Z,7.39
2023-01-13T20:26:18.849Z,7.23
2023-01-13T20:42:01.741Z,7.26
2023-01-13T20:57:44.110Z,7.37
2023-01-13T21:13:26.521Z,7.43
2023-01-13T21:29:08.842Z,7.42
2023-01-13T21:44:51.551Z,7.09
2023-01-13T22:00:34.242Z,7.07
2023-01-13T22:16:17.431Z,7.14
2023-01-13T22:32:00.054Z,7.11
2023-01-13T22:47:43.035Z,7.09
2023-01-13T23:03:25.796Z,6.87
2023-01-13T23:19:08.890Z,6.69
2023-01-13T23:34:51.264Z,6.5
2023-01-13T23:50:34.512Z,6.27
